createdAt,value
2022-09-21T00:03:37.837Z,10.3
2022-09-21T00:08:40.278Z,10.2
2022-09-21T00:13:42.484Z,10.2
2022-09-21T00:18:44.564Z,10.2
2022-09-21T00:23:46.478Z,10.1
2022-09-21T00:28:48.530Z,10
2022-09-21T00:33:50.512Z,9.8
2022-09-21T00:38:52.507Z,9.6
2022-09-21T00:43:54.431Z,9.4
2022-09-21T00:48:57.914Z,9.3
2022-09-21T00:53:59.823Z,9.3
2022-09-21T00:59:01.900Z,9.3
2022-09-21T01:04:03.843Z,9.4
2022-09-21T01:09:06.029Z,9.2
2022-09-21T01:14:10.923Z,9.1
2022-09-21T01:19:12.901Z,9.1
2022-09-21T01:24:14.936Z,9.1
2022-09-21T01:29:16.902Z,9.2
2022-09-21T01:34:18.755Z,9.2
2022-09-21T01:39:20.600Z,9.1
2022-09-21T01:44:22.609Z,9.1
2022-09-21T01:49:24.511Z,9.1
2022-09-21T01:54:26.375Z,9.1
2022-09-21T01:59:28.564Z,9.1
2022-09-21T02:04:30.530Z,9.2
2022-09-21T02:09:32.546Z,9.2
2022-09-21T02:14:34.702Z,9.1
2022-09-21T02:19:36.666Z,9
2022-09-21T02:24:39.078Z,9.1
2022-09-21T02:29:41.049Z,9.1
2022-09-21T02:34:43.016Z,9.2
2022-09-21T02:39:45.171Z,9.2
2022-09-21T02:44:47.556Z,9.4
2022-09-21T02:49:49.808Z,9.4
2022-09-21T02:54:52.230Z,9.4
2022-09-21T02:59:54.354Z,9.4
2022-09-21T03:04:56.275Z,9.4
2022-09-21T03:09:58.202Z,9.5
2022-09-21T03:15:00.613Z,9.4
2022-09-21T03:20:02.566Z,9.6
2022-09-21T03:25:04.928Z,9.4
2022-09-21T03:30:07.068Z,9.4
2022-09-21T03:35:09.076Z,9.4
2022-09-21T03:40:11.166Z,9.5
2022-09-21T03:45:13.213Z,9.6
2022-09-21T03:50:15.148Z,9.5
2022-09-21T03:55:17.116Z,9.4
2022-09-21T04:00:19.772Z,9.3
2022-09-21T04:05:21.790Z,9.2
2022-09-21T04:10:23.754Z,9.3
2022-09-21T04:15:26.508Z,9.1
2022-09-21T04:20:28.438Z,9.1
2022-09-21T04:25:33.224Z,9
2022-09-21T04:30:39.993Z,9.1
2022-09-21T04:35:41.993Z,9.1
2022-09-21T04:40:44.080Z,9.2
2022-09-21T04:45:46.099Z,9.1
2022-09-21T04:50:47.975Z,9.1
2022-09-21T04:55:49.850Z,9.1
2022-09-21T05:00:52.736Z,9.2
2022-09-21T05:05:54.719Z,9.2
2022-09-21T05:10:58.113Z,9.4
2022-09-21T05:16:00.520Z,9.4
2022-09-21T05:21:02.625Z,9.7
2022-09-21T05:26:04.586Z,10
2022-09-21T05:31:19.929Z,10.3
2022-09-21T05:36:11.958Z,10.3
2022-09-21T05:41:14.233Z,10.3
2022-09-21T05:46:16.368Z,10.4
2022-09-21T05:51:18.540Z,11.6
2022-09-21T05:56:20.444Z,12.7
2022-09-21T06:06:22.936Z,13.7
2022-09-21T06:11:24.941Z,13.9
2022-09-21T06:16:27.405Z,13.6
2022-09-21T06:21:29.435Z,14.3
2022-09-21T06:26:31.422Z,14.6
2022-09-21T06:31:33.404Z,14.6
2022-09-21T06:36:35.496Z,14.9
2022-09-21T06:41:37.436Z,14.9
2022-09-21T06:46:39.830Z,14.8
2022-09-21T06:51:41.760Z,14.9
2022-09-21T06:56:48.126Z,16.3
2022-09-21T07:01:50.690Z,17.7
2022-09-21T07:06:52.812Z,17.7
2022-09-21T07:16:55.279Z,22
2022-09-21T07:21:57.260Z,21.6
2022-09-21T07:26:59.196Z,21.7
2022-09-21T07:32:01.427Z,23.5
2022-09-21T07:37:03.561Z,23.7
2022-09-21T07:42:06.126Z,21.1
2022-09-21T07:47:08.357Z,21
2022-09-21T07:52:14.296Z,17.6
2022-09-21T07:57:16.189Z,17.4
2022-09-21T08:02:18.380Z,18
2022-09-21T08:07:21.493Z,20
2022-09-21T08:12:24.080Z,22.3
2022-09-21T08:17:26.277Z,23.7
2022-09-21T08:22:28.244Z,24.9
2022-09-21T08:32:53.104Z,25.8
2022-09-21T08:37:35.071Z,25.7
2022-09-21T08:42:37.322Z,27.6
2022-09-21T08:47:39.264Z,27.8
2022-09-21T08:52:41.677Z,27.2
2022-09-21T08:57:48.069Z,29.2
2022-09-21T09:02:50.135Z,30.3
2022-09-21T09:07:52.082Z,28.4
2022-09-21T09:12:54.039Z,30.1
2022-09-21T09:17:56.160Z,26.4
2022-09-21T09:22:58.042Z,25.9
2022-09-21T09:27:59.969Z,30.8
2022-09-21T09:33:01.939Z,31.6
2022-09-21T09:38:03.845Z,28.3
2022-09-21T09:43:06.915Z,28.4
2022-09-21T09:48:08.842Z,28.3
2022-09-21T09:53:10.760Z,29
2022-09-21T09:58:12.657Z,32
2022-09-21T10:03:14.696Z,34.9
2022-09-21T10:08:16.577Z,35.6
2022-09-21T10:13:19.107Z,32.7
2022-09-21T10:18:21.474Z,31.6
2022-09-21T10:23:23.349Z,29.1
2022-09-21T10:28:25.315Z,34.2
2022-09-21T10:33:27.382Z,35.3
2022-09-21T10:38:29.523Z,35.5
2022-09-21T10:43:38.732Z,31.6
2022-09-21T10:48:35.004Z,31.5
2022-09-21T10:53:36.943Z,30.7
2022-09-21T10:58:40.697Z,28.7
2022-09-21T11:03:42.851Z,28.6
2022-09-21T11:08:44.876Z,25.4
2022-09-21T11:13:46.799Z,23.5
2022-09-21T11:18:48.963Z,22.6
2022-09-21T11:23:50.968Z,22.2
2022-09-21T11:28:53.341Z,22.8
2022-09-21T11:33:55.476Z,22.7
2022-09-21T11:38:57.511Z,26.5
2022-09-21T11:44:05.243Z,28
2022-09-21T11:49:01.344Z,27.8
2022-09-21T11:54:03.453Z,24.2
2022-09-21T11:59:05.759Z,22.7
2022-09-21T12:04:08.433Z,21.9
2022-09-21T12:09:10.581Z,21.6
2022-09-21T12:14:12.631Z,21.4
2022-09-21T12:19:14.686Z,21.2
2022-09-21T12:24:16.755Z,22.5
2022-09-21T12:29:18.672Z,22.2
2022-09-21T12:34:20.582Z,23.1
2022-09-21T12:39:22.513Z,22.7
2022-09-21T12:44:24.512Z,21.7
2022-09-21T12:49:26.880Z,21.7
2022-09-21T12:54:28.877Z,21.5
2022-09-21T12:59:30.994Z,20.5
2022-09-21T13:04:33.700Z,19.4
2022-09-21T13:09:35.647Z,19.3
2022-09-21T13:14:37.607Z,19.4
2022-09-21T13:19:40.547Z,18.9
2022-09-21T13:24:42.724Z,18.8
2022-09-21T13:29:44.914Z,19.2
2022-09-21T13:34:47.331Z,18.1
2022-09-21T13:39:49.428Z,18.1
2022-09-21T13:44:51.450Z,17.9
2022-09-21T13:50:01.273Z,17.7
2022-09-21T13:55:03.368Z,17.7
2022-09-21T14:00:05.433Z,17.6
2022-09-21T14:05:07.415Z,17.8
2022-09-21T14:10:09.363Z,18
2022-09-21T14:15:11.458Z,18.4
2022-09-21T14:20:13.893Z,18.6
2022-09-21T14:25:16.159Z,18.3
2022-09-21T14:30:18.101Z,18.5
2022-09-21T14:35:20.207Z,18.6
2022-09-21T14:40:22.364Z,18.6
2022-09-21T14:45:24.460Z,18.4
2022-09-21T14:50:26.587Z,18.2
2022-09-21T14:55:28.568Z,17.5
2022-09-21T15:00:30.510Z,17.4
2022-09-21T15:05:32.705Z,16.8
2022-09-21T15:10:34.833Z,16.5
2022-09-21T15:15:36.854Z,16
2022-09-21T15:20:39.029Z,15.8
2022-09-21T15:25:41.073Z,16
2022-09-21T15:30:43.180Z,16.3
2022-09-21T15:35:45.396Z,16.2
2022-09-21T15:40:47.839Z,16
2022-09-21T15:45:49.907Z,16
2022-09-21T15:50:51.954Z,15.9
2022-09-21T15:55:53.877Z,16
2022-09-21T16:00:56.093Z,16
2022-09-21T16:05:58.213Z,15.6
2022-09-21T16:11:00.148Z,15.2
2022-09-21T16:16:02.405Z,14.9
2022-09-21T16:21:04.834Z,14.7
2022-09-21T16:26:07.319Z,14.4
2022-09-21T16:31:09.695Z,14.3
2022-09-21T16:36:12.173Z,14.2
2022-09-21T16:41:14.202Z,14.2
2022-09-21T16:46:17.123Z,14
2022-09-21T16:51:19.161Z,14
2022-09-21T16:56:21.100Z,13.8
2022-09-21T17:01:23.604Z,13.6
2022-09-21T17:06:25.694Z,13.4
2022-09-21T17:11:27.816Z,13.3
2022-09-21T17:16:29.935Z,13.3
2022-09-21T17:21:32.556Z,13.2
2022-09-21T17:26:34.708Z,13.2
2022-09-21T17:31:36.877Z,13.2
2022-09-21T17:36:39.168Z,13.1
2022-09-21T17:41:41.280Z,12.8
2022-09-21T17:46:43.821Z,12.6
2022-09-21T17:51:45.934Z,12.6
2022-09-21T17:56:47.953Z,12.5
2022-09-21T18:01:50.584Z,12.2
2022-09-21T18:06:53.320Z,12.1
2022-09-21T18:11:55.273Z,12
2022-09-21T18:16:57.241Z,11.8
2022-09-21T18:26:59.815Z,11.6
2022-09-21T18:32:01.909Z,11.5
2022-09-21T18:37:04.007Z,11.5
2022-09-21T18:42:07.950Z,11.4
2022-09-21T18:47:09.932Z,11.2
2022-09-21T18:52:11.978Z,11.1
2022-09-21T18:57:14.234Z,11.1
2022-09-21T19:02:17.027Z,11
2022-09-21T19:07:19.427Z,11
2022-09-21T19:12:21.398Z,10.9
2022-09-21T19:17:23.561Z,10.9
2022-09-21T19:27:26.163Z,10.8
2022-09-21T19:32:28.173Z,10.7
2022-09-21T19:37:30.243Z,10.7
2022-09-21T19:42:32.318Z,10.6
2022-09-21T19:47:34.385Z,10.5
2022-09-21T19:52:36.515Z,10.5
2022-09-21T19:57:38.561Z,10.4
2022-09-21T20:02:40.785Z,10.4
2022-09-21T20:07:43.141Z,10.3
2022-09-21T20:12:45.113Z,10.3
2022-09-21T20:17:47.109Z,10.1
2022-09-21T20:22:49.692Z,10
2022-09-21T20:27:51.582Z,10
2022-09-21T20:32:53.546Z,9.9
2022-09-21T20:38:03.478Z,9.8
2022-09-21T20:42:55.443Z,9.8
2022-09-21T20:47:57.386Z,9.7
2022-09-21T20:52:59.324Z,9.7
2022-09-21T20:58:01.347Z,9.6
2022-09-21T21:03:03.272Z,9.5
2022-09-21T21:08:05.232Z,9.5
2022-09-21T21:13:07.250Z,9.4
2022-09-21T21:18:09.443Z,9.3
2022-09-21T21:23:11.787Z,9.2
2022-09-21T21:33:15.092Z,9
2022-09-21T21:38:16.972Z,9.2
2022-09-21T21:43:18.877Z,9.1
2022-09-21T21:48:20.866Z,9.2
2022-09-21T21:53:22.858Z,9.1
2022-09-21T21:58:24.838Z,9
2022-09-21T22:03:26.725Z,8.9
2022-09-21T22:08:28.844Z,8.8
2022-09-21T22:13:36.549Z,8.5
2022-09-21T22:18:38.521Z,8.4
2022-09-21T22:23:40.718Z,8.4
2022-09-21T22:33:43.394Z,8.3
2022-09-21T22:38:45.314Z,8.2
2022-09-21T22:43:47.246Z,8.3
2022-09-21T22:48:49.168Z,8.2
2022-09-21T22:53:51.242Z,8.1
2022-09-21T22:58:53.802Z,8
2022-09-21T23:03:55.820Z,8
2022-09-21T23:08:58.864Z,7.8
2022-09-21T23:14:00.886Z,7.7
2022-09-21T23:19:02.791Z,7.7
2022-09-21T23:24:05.015Z,7.5
2022-09-21T23:29:07.167Z,7.6
2022-09-21T23:34:09.318Z,7.6
2022-09-21T23:39:11.405Z,7.6
2022-09-21T23:44:13.578Z,7.5
2022-09-21T23:49:15.620Z,7.5
2022-09-21T23:54:17.651Z,7.5
2022-09-21T23:59:19.651Z,7.5
